sensor_id;sensor_type;location;lat;lon;timestamp;P1;durP1;ratioP1;P2;durP2;ratioP2
35907;SDS011;22003;50.320;8.054;2022-10-20T04:01:09;28.92;;;10.23;;
35907;SDS011;22003;50.320;8.054;2022-10-20T04:03:37;18.73;;;9.48;;
35907;SDS011;22003;50.320;8.054;2022-10-20T04:06:02;21.63;;;10.07;;
35907;SDS011;22003;50.320;8.054;2022-10-20T04:08:27;12.75;;;9.55;;
35907;SDS011;22003;50.320;8.054;2022-10-20T04:10:52;18.95;;;11.55;;
35907;SDS011;22003;50.320;8.054;2022-10-20T04:13:17;16.30;;;9.50;;
35907;SDS011;22003;50.320;8.054;2022-10-20T04:15:43;16.90;;;9.67;;
35907;SDS011;22003;50.320;8.054;2022-10-20T04:18:08;20.67;;;9.95;;
35907;SDS011;22003;50.320;8.054;2022-10-20T04:20:33;17.95;;;10.38;;
35907;SDS011;22003;50.320;8.054;2022-10-20T04:22:58;19.47;;;10.30;;
35907;SDS011;22003;50.320;8.054;2022-10-20T04:25:23;22.17;;;10.30;;
35907;SDS011;22003;50.320;8.054;2022-10-20T04:27:48;15.75;;;10.15;;
35907;SDS011;22003;50.320;8.054;2022-10-20T04:30:14;19.55;;;10.45;;
35907;SDS011;22003;50.320;8.054;2022-10-20T04:32:39;19.83;;;10.25;;
35907;SDS011;22003;50.320;8.054;2022-10-20T04:35:04;15.52;;;10.02;;
35907;SDS011;22003;50.320;8.054;2022-10-20T04:37:29;18.00;;;10.52;;
35907;SDS011;22003;50.320;8.054;2022-10-20T04:39:55;21.58;;;10.38;;
35907;SDS011;22003;50.320;8.054;2022-10-20T04:42:21;24.45;;;11.65;;
35907;SDS011;22003;50.320;8.054;2022-10-20T04:44:46;17.95;;;10.93;;
35907;SDS011;22003;50.320;8.054;2022-10-20T04:47:12;19.38;;;11.18;;
35907;SDS011;22003;50.320;8.054;2022-10-20T04:49:37;19.33;;;10.93;;
35907;SDS011;22003;50.320;8.054;2022-10-20T04:52:02;16.73;;;10.27;;
35907;SDS011;22003;50.320;8.054;2022-10-20T04:54:28;20.60;;;10.48;;
35907;SDS011;22003;50.320;8.054;2022-10-20T04:56:53;18.00;;;10.82;;
35907;SDS011;22003;50.320;8.054;2022-10-20T04:59:18;17.83;;;9.57;;
35907;SDS011;22003;50.320;8.054;2022-10-20T05:01:43;21.97;;;11.77;;
35907;SDS011;22003;50.320;8.054;2022-10-20T05:04:09;15.40;;;9.87;;
35907;SDS011;22003;50.320;8.054;2022-10-20T05:06:34;18.17;;;9.30;;
35907;SDS011;22003;50.320;8.054;2022-10-20T05:09:02;17.80;;;10.60;;
35907;SDS011;22003;50.320;8.054;2022-10-20T05:13:52;17.05;;;10.38;;
35907;SDS011;22003;50.320;8.054;2022-10-20T05:16:18;16.42;;;9.88;;
35907;SDS011;22003;50.320;8.054;2022-10-20T05:18:43;17.40;;;10.23;;
35907;SDS011;22003;50.320;8.054;2022-10-20T05:21:12;17.25;;;11.50;;
35907;SDS011;22003;50.320;8.054;2022-10-20T05:23:38;18.13;;;10.65;;
35907;SDS011;22003;50.320;8.054;2022-10-20T05:26:04;17.67;;;11.32;;
35907;SDS011;22003;50.320;8.054;2022-10-20T05:28:29;20.92;;;11.73;;
35907;SDS011;22003;50.320;8.054;2022-10-20T05:30:55;16.77;;;11.65;;
35907;SDS011;22003;50.320;8.054;2022-10-20T05:33:20;15.80;;;10.23;;
35907;SDS011;22003;50.320;8.054;2022-10-20T05:35:45;17.43;;;11.37;;
35907;SDS011;22003;50.320;8.054;2022-10-20T05:38:10;20.10;;;11.30;;
35907;SDS011;22003;50.320;8.054;2022-10-20T05:40:35;21.03;;;10.97;;
35907;SDS011;22003;50.320;8.054;2022-10-20T05:43:00;19.00;;;10.75;;
35907;SDS011;22003;50.320;8.054;2022-10-20T05:45:26;20.73;;;12.45;;
35907;SDS011;22003;50.320;8.054;2022-10-20T05:47:51;22.73;;;11.13;;
35907;SDS011;22003;50.320;8.054;2022-10-20T05:50:16;18.45;;;10.88;;
35907;SDS011;22003;50.320;8.054;2022-10-20T05:52:41;20.30;;;12.02;;
35907;SDS011;22003;50.320;8.054;2022-10-20T05:55:06;17.33;;;11.07;;
35907;SDS011;22003;50.320;8.054;2022-10-20T05:57:32;16.95;;;10.93;;
35907;SDS011;22003;50.320;8.054;2022-10-20T05:59:57;18.95;;;10.95;;
35907;SDS011;22003;50.320;8.054;2022-10-20T06:02:22;18.73;;;10.77;;
35907;SDS011;22003;50.320;8.054;2022-10-20T06:04:47;18.50;;;10.33;;
35907;SDS011;22003;50.320;8.054;2022-10-20T06:07:12;16.33;;;10.17;;
35907;SDS011;22003;50.320;8.054;2022-10-20T06:09:38;21.35;;;11.07;;
35907;SDS011;22003;50.320;8.054;2022-10-20T06:12:04;18.60;;;11.27;;
35907;SDS011;22003;50.320;8.054;2022-10-20T06:14:29;18.75;;;11.02;;
35907;SDS011;22003;50.320;8.054;2022-10-20T06:16:55;16.43;;;10.50;;
35907;SDS011;22003;50.320;8.054;2022-10-20T06:19:21;18.10;;;10.45;;
35907;SDS011;22003;50.320;8.054;2022-10-20T06:21:46;17.92;;;9.88;;
35907;SDS011;22003;50.320;8.054;2022-10-20T06:24:11;21.17;;;9.85;;
35907;SDS011;22003;50.320;8.054;2022-10-20T06:26:37;15.98;;;10.35;;
35907;SDS011;22003;50.320;8.054;2022-10-20T06:29:04;15.07;;;9.68;;
35907;SDS011;22003;50.320;8.054;2022-10-20T06:31:33;17.95;;;10.07;;
35907;SDS011;22003;50.320;8.054;2022-10-20T06:33:59;20.55;;;10.25;;
35907;SDS011;22003;50.320;8.054;2022-10-20T06:36:25;20.58;;;11.63;;
35907;SDS011;22003;50.320;8.054;2022-10-20T06:38:53;18.98;;;9.88;;
35907;SDS011;22003;50.320;8.054;2022-10-20T06:41:19;17.42;;;10.05;;
35907;SDS011;22003;50.320;8.054;2022-10-20T06:43:44;21.27;;;11.18;;
35907;SDS011;22003;50.320;8.054;2022-10-20T06:46:10;20.50;;;10.35;;
35907;SDS011;22003;50.320;8.054;2022-10-20T06:48:36;20.25;;;10.30;;
35907;SDS011;22003;50.320;8.054;2022-10-20T06:51:02;17.77;;;10.73;;
35907;SDS011;22003;50.320;8.054;2022-10-20T06:53:28;14.33;;;9.53;;
35907;SDS011;22003;50.320;8.054;2022-10-20T06:55:54;16.98;;;10.52;;
35907;SDS011;22003;50.320;8.054;2022-10-20T06:58:19;17.00;;;10.35;;
35907;SDS011;22003;50.320;8.054;2022-10-20T07:00:44;15.80;;;10.07;;
35907;SDS011;22003;50.320;8.054;2022-10-20T07:03:09;16.17;;;10.45;;
35907;SDS011;22003;50.320;8.054;2022-10-20T07:05:35;16.47;;;10.60;;
35907;SDS011;22003;50.320;8.054;2022-10-20T07:08:00;13.00;;;9.40;;
35907;SDS011;22003;50.320;8.054;2022-10-20T07:10:25;17.43;;;10.50;;
35907;SDS011;22003;50.320;8.054;2022-10-20T07:12:50;19.07;;;11.77;;
35907;SDS011;22003;50.320;8.054;2022-10-20T07:15:15;15.50;;;10.57;;
35907;SDS011;22003;50.320;8.054;2022-10-20T07:17:40;22.33;;;10.85;;
35907;SDS011;22003;50.320;8.054;2022-10-20T07:20:06;18.65;;;9.93;;
35907;SDS011;22003;50.320;8.054;2022-10-20T07:22:31;17.70;;;10.63;;
35907;SDS011;22003;50.320;8.054;2022-10-20T07:24:57;19.63;;;9.85;;
35907;SDS011;22003;50.320;8.054;2022-10-20T07:27:23;15.88;;;9.68;;
35907;SDS011;22003;50.320;8.054;2022-10-20T07:29:48;18.58;;;9.63;;
35907;SDS011;22003;50.320;8.054;2022-10-20T07:32:13;13.90;;;8.63;;
35907;SDS011;22003;50.320;8.054;2022-10-20T07:34:39;13.07;;;8.75;;
35907;SDS011;22003;50.320;8.054;2022-10-20T07:37:04;13.70;;;9.50;;
35907;SDS011;22003;50.320;8.054;2022-10-20T07:39:29;15.93;;;8.43;;
35907;SDS011;22003;50.320;8.054;2022-10-20T07:41:54;14.50;;;9.35;;
35907;SDS011;22003;50.320;8.054;2022-10-20T07:44:19;15.50;;;9.38;;
35907;SDS011;22003;50.320;8.054;2022-10-20T07:46:44;15.73;;;8.80;;
35907;SDS011;22003;50.320;8.054;2022-10-20T07:49:10;14.80;;;8.85;;
35907;SDS011;22003;50.320;8.054;2022-10-20T07:51:35;17.58;;;9.05;;
35907;SDS011;22003;50.320;8.054;2022-10-20T07:54:02;22.35;;;9.70;;
35907;SDS011;22003;50.320;8.054;2022-10-20T07:56:28;15.65;;;10.15;;
35907;SDS011;22003;50.320;8.054;2022-10-20T07:58:54;20.30;;;9.88;;
35907;SDS011;22003;50.320;8.054;2022-10-20T08:01:19;13.95;;;9.20;;
35907;SDS011;22003;50.320;8.054;2022-10-20T08:03:44;19.88;;;9.52;;
35907;SDS011;22003;50.320;8.054;2022-10-20T08:06:09;20.27;;;10.68;;
35907;SDS011;22003;50.320;8.054;2022-10-20T08:08:35;16.90;;;9.57;;
35907;SDS011;22003;50.320;8.054;2022-10-20T08:11:00;15.73;;;9.20;;
35907;SDS011;22003;50.320;8.054;2022-10-20T08:13:26;17.35;;;9.88;;
35907;SDS011;22003;50.320;8.054;2022-10-20T08:15:51;15.50;;;9.02;;
35907;SDS011;22003;50.320;8.054;2022-10-20T08:18:16;21.38;;;9.85;;
35907;SDS011;22003;50.320;8.054;2022-10-20T08:20:41;16.15;;;8.95;;
35907;SDS011;22003;50.320;8.054;2022-10-20T08:23:07;15.25;;;8.88;;
35907;SDS011;22003;50.320;8.054;2022-10-20T08:25:32;11.98;;;8.55;;
35907;SDS011;22003;50.320;8.054;2022-10-20T08:27:57;13.90;;;8.52;;
35907;SDS011;22003;50.320;8.054;2022-10-20T08:30:22;17.60;;;9.20;;
35907;SDS011;22003;50.320;8.054;2022-10-20T08:32:51;16.25;;;8.93;;
35907;SDS011;22003;50.320;8.054;2022-10-20T08:35:16;17.15;;;9.63;;
35907;SDS011;22003;50.320;8.054;2022-10-20T08:37:42;22.27;;;9.30;;
35907;SDS011;22003;50.320;8.054;2022-10-20T08:40:09;16.38;;;8.82;;
35907;SDS011;22003;50.320;8.054;2022-10-20T08:42:38;16.00;;;8.88;;
35907;SDS011;22003;50.320;8.054;2022-10-20T08:45:04;21.48;;;9.15;;
35907;SDS011;22003;50.320;8.054;2022-10-20T08:47:30;12.90;;;9.25;;
35907;SDS011;22003;50.320;8.054;2022-10-20T08:49:56;13.32;;;8.20;;
35907;SDS011;22003;50.320;8.054;2022-10-20T08:52:22;13.57;;;9.13;;
35907;SDS011;22003;50.320;8.054;2022-10-20T08:54:49;13.73;;;8.82;;
35907;SDS011;22003;50.320;8.054;2022-10-20T08:57:20;16.60;;;8.90;;
35907;SDS011;22003;50.320;8.054;2022-10-20T08:59:46;17.38;;;9.65;;
35907;SDS011;22003;50.320;8.054;2022-10-20T09:02:13;16.75;;;10.15;;
35907;SDS011;22003;50.320;8.054;2022-10-20T09:04:47;17.10;;;10.35;;
35907;SDS011;22003;50.320;8.054;2022-10-20T09:07:21;19.63;;;10.50;;
35907;SDS011;22003;50.320;8.054;2022-10-20T09:09:47;15.85;;;9.85;;
35907;SDS011;22003;50.320;8.054;2022-10-20T09:12:13;22.42;;;11.18;;
35907;SDS011;22003;50.320;8.054;2022-10-20T09:14:39;21.88;;;10.80;;
35907;SDS011;22003;50.320;8.054;2022-10-20T09:17:05;18.50;;;10.48;;
35907;SDS011;22003;50.320;8.054;2022-10-20T09:19:36;19.98;;;11.40;;
35907;SDS011;22003;50.320;8.054;2022-10-20T09:22:03;19.35;;;10.77;;
35907;SDS011;22003;50.320;8.054;2022-10-20T09:24:29;19.83;;;11.30;;
35907;SDS011;22003;50.320;8.054;2022-10-20T09:26:55;23.42;;;11.18;;
35907;SDS011;22003;50.320;8.054;2022-10-20T09:29:21;17.65;;;11.43;;
35907;SDS011;22003;50.320;8.054;2022-10-20T09:31:50;18.98;;;10.65;;
35907;SDS011;22003;50.320;8.054;2022-10-20T09:36:45;17.90;;;11.25;;
35907;SDS011;22003;50.320;8.054;2022-10-20T09:39:17;14.73;;;10.68;;
35907;SDS011;22003;50.320;8.054;2022-10-20T09:41:44;15.90;;;9.77;;
35907;SDS011;22003;50.320;8.054;2022-10-20T09:44:13;16.60;;;9.45;;
35907;SDS011;22003;50.320;8.054;2022-10-20T09:46:46;19.70;;;10.38;;
35907;SDS011;22003;50.320;8.054;2022-10-20T09:49:32;20.05;;;10.40;;
35907;SDS011;22003;50.320;8.054;2022-10-20T09:51:58;18.60;;;10.60;;
35907;SDS011;22003;50.320;8.054;2022-10-20T09:54:24;16.55;;;9.60;;
35907;SDS011;22003;50.320;8.054;2022-10-20T09:56:49;15.77;;;9.98;;
35907;SDS011;22003;50.320;8.054;2022-10-20T10:01:55;14.57;;;8.93;;
35907;SDS011;22003;50.320;8.054;2022-10-20T10:04:30;18.17;;;10.23;;
35907;SDS011;22003;50.320;8.054;2022-10-20T10:06:56;17.17;;;11.45;;
35907;SDS011;22003;50.320;8.054;2022-10-20T10:09:39;16.20;;;9.40;;
35907;SDS011;22003;50.320;8.054;2022-10-20T10:14:34;18.98;;;10.90;;
35907;SDS011;22003;50.320;8.054;2022-10-20T10:17:00;19.10;;;10.63;;
35907;SDS011;22003;50.320;8.054;2022-10-20T10:19:26;18.88;;;10.68;;
35907;SDS011;22003;50.320;8.054;2022-10-20T10:21:53;16.42;;;10.25;;
35907;SDS011;22003;50.320;8.054;2022-10-20T10:26:53;16.05;;;9.85;;
35907;SDS011;22003;50.320;8.054;2022-10-20T10:29:26;19.05;;;10.60;;
35907;SDS011;22003;50.320;8.054;2022-10-20T10:31:59;19.38;;;11.45;;
35907;SDS011;22003;50.320;8.054;2022-10-20T10:34:28;20.98;;;11.15;;
35907;SDS011;22003;50.320;8.054;2022-10-20T10:36:55;19.58;;;11.68;;
35907;SDS011;22003;50.320;8.054;2022-10-20T10:39:21;20.63;;;12.27;;
35907;SDS011;22003;50.320;8.054;2022-10-20T10:41:56;23.17;;;11.67;;
35907;SDS011;22003;50.320;8.054;2022-10-20T10:44:30;20.83;;;12.40;;
35907;SDS011;22003;50.320;8.054;2022-10-20T10:49:47;19.35;;;12.20;;
35907;SDS011;22003;50.320;8.054;2022-10-20T10:52:29;23.15;;;12.93;;
35907;SDS011;22003;50.320;8.054;2022-10-20T10:55:02;23.55;;;12.38;;
35907;SDS011;22003;50.320;8.054;2022-10-20T10:57:30;22.50;;;12.82;;
35907;SDS011;22003;50.320;8.054;2022-10-20T10:59:58;22.52;;;13.73;;
35907;SDS011;22003;50.320;8.054;2022-10-20T11:02:37;22.88;;;13.00;;
35907;SDS011;22003;50.320;8.054;2022-10-20T11:10:17;24.05;;;14.77;;
35907;SDS011;22003;50.320;8.054;2022-10-20T11:22:54;29.17;;;15.98;;
35907;SDS011;22003;50.320;8.054;2022-10-20T11:28:00;27.05;;;16.48;;
35907;SDS011;22003;50.320;8.054;2022-10-20T11:30:25;28.35;;;15.93;;
35907;SDS011;22003;50.320;8.054;2022-10-20T11:37:54;33.95;;;17.73;;
35907;SDS011;22003;50.320;8.054;2022-10-20T11:42:51;28.63;;;16.93;;
35907;SDS011;22003;50.320;8.054;2022-10-20T11:47:49;27.92;;;15.40;;
35907;SDS011;22003;50.320;8.054;2022-10-20T11:50:16;27.75;;;15.75;;
35907;SDS011;22003;50.320;8.054;2022-10-20T12:05:51;22.02;;;14.18;;
35907;SDS011;22003;50.320;8.054;2022-10-20T12:09:05;28.10;;;14.80;;
35907;SDS011;22003;50.320;8.054;2022-10-20T12:11:09;27.85;;;14.85;;
35907;SDS011;22003;50.320;8.054;2022-10-20T12:16:05;23.00;;;14.18;;
35907;SDS011;22003;50.320;8.054;2022-10-20T12:18:31;28.73;;;14.75;;
35907;SDS011;22003;50.320;8.054;2022-10-20T12:21:02;24.63;;;14.40;;
35907;SDS011;22003;50.320;8.054;2022-10-20T12:24:01;27.77;;;15.70;;
35907;SDS011;22003;50.320;8.054;2022-10-20T12:28:57;29.95;;;16.92;;
35907;SDS011;22003;50.320;8.054;2022-10-20T12:31:23;29.05;;;15.40;;
35907;SDS011;22003;50.320;8.054;2022-10-20T12:38:53;26.63;;;15.10;;
35907;SDS011;22003;50.320;8.054;2022-10-20T12:41:28;28.17;;;16.10;;
35907;SDS011;22003;50.320;8.054;2022-10-20T12:43:59;28.58;;;16.60;;
35907;SDS011;22003;50.320;8.054;2022-10-20T12:46:25;31.33;;;15.43;;
35907;SDS011;22003;50.320;8.054;2022-10-20T12:48:52;26.20;;;15.00;;
35907;SDS011;22003;50.320;8.054;2022-10-20T12:51:25;25.42;;;15.35;;
35907;SDS011;22003;50.320;8.054;2022-10-20T12:53:54;27.02;;;15.25;;
35907;SDS011;22003;50.320;8.054;2022-10-20T13:01:29;27.30;;;15.90;;
35907;SDS011;22003;50.320;8.054;2022-10-20T13:03:55;26.27;;;16.75;;
35907;SDS011;22003;50.320;8.054;2022-10-20T13:16:40;28.20;;;16.65;;
35907;SDS011;22003;50.320;8.054;2022-10-20T13:19:07;24.45;;;15.30;;
35907;SDS011;22003;50.320;8.054;2022-10-20T13:21:37;28.15;;;16.40;;
35907;SDS011;22003;50.320;8.054;2022-10-20T13:24:04;23.73;;;14.77;;
35907;SDS011;22003;50.320;8.054;2022-10-20T13:29:49;27.48;;;15.02;;
35907;SDS011;22003;50.320;8.054;2022-10-20T13:32:02;29.13;;;14.73;;
35907;SDS011;22003;50.320;8.054;2022-10-20T13:44:57;28.38;;;15.45;;
35907;SDS011;22003;50.320;8.054;2022-10-20T13:47:33;30.52;;;16.05;;
35907;SDS011;22003;50.320;8.054;2022-10-20T13:50:10;29.30;;;16.63;;
35907;SDS011;22003;50.320;8.054;2022-10-20T13:52:37;26.00;;;15.15;;
35907;SDS011;22003;50.320;8.054;2022-10-20T13:55:03;28.53;;;15.90;;
35907;SDS011;22003;50.320;8.054;2022-10-20T13:57:29;25.80;;;15.40;;
35907;SDS011;22003;50.320;8.054;2022-10-20T13:59:57;27.30;;;15.60;;
35907;SDS011;22003;50.320;8.054;2022-10-20T14:02:24;25.65;;;15.35;;
35907;SDS011;22003;50.320;8.054;2022-10-20T14:05:00;26.40;;;15.97;;
35907;SDS011;22003;50.320;8.054;2022-10-20T14:07:33;28.30;;;15.57;;
35907;SDS011;22003;50.320;8.054;2022-10-20T14:09:58;28.73;;;15.25;;
35907;SDS011;22003;50.320;8.054;2022-10-20T14:12:24;32.47;;;16.97;;
35907;SDS011;22003;50.320;8.054;2022-10-20T14:14:50;30.98;;;16.30;;
35907;SDS011;22003;50.320;8.054;2022-10-20T14:17:19;26.85;;;16.40;;
35907;SDS011;22003;50.320;8.054;2022-10-20T14:19:45;26.50;;;15.98;;
35907;SDS011;22003;50.320;8.054;2022-10-20T14:24:37;29.40;;;15.52;;
35907;SDS011;22003;50.320;8.054;2022-10-20T14:27:04;31.63;;;17.17;;
35907;SDS011;22003;50.320;8.054;2022-10-20T14:29:34;26.83;;;16.20;;
35907;SDS011;22003;50.320;8.054;2022-10-20T14:32:01;33.35;;;17.50;;
35907;SDS011;22003;50.320;8.054;2022-10-20T14:34:27;28.45;;;15.55;;
35907;SDS011;22003;50.320;8.054;2022-10-20T14:36:53;28.23;;;16.50;;
35907;SDS011;22003;50.320;8.054;2022-10-20T14:39:40;36.45;;;17.40;;
35907;SDS011;22003;50.320;8.054;2022-10-20T14:44:45;36.15;;;16.60;;
35907;SDS011;22003;50.320;8.054;2022-10-20T14:47:11;30.70;;;17.25;;
35907;SDS011;22003;50.320;8.054;2022-10-20T14:49:37;29.15;;;16.45;;
35907;SDS011;22003;50.320;8.054;2022-10-20T14:54:42;35.53;;;18.97;;
35907;SDS011;22003;50.320;8.054;2022-10-20T14:59:34;30.95;;;17.45;;
35907;SDS011;22003;50.320;8.054;2022-10-20T15:04:39;32.50;;;17.85;;
35907;SDS011;22003;50.320;8.054;2022-10-20T15:09:30;35.10;;;18.27;;
35907;SDS011;22003;50.320;8.054;2022-10-20T15:11:56;33.17;;;19.25;;
35907;SDS011;22003;50.320;8.054;2022-10-20T15:14:22;30.90;;;18.15;;
35907;SDS011;22003;50.320;8.054;2022-10-20T15:16:47;31.52;;;18.10;;
35907;SDS011;22003;50.320;8.054;2022-10-20T15:21:48;33.30;;;18.67;;
35907;SDS011;22003;50.320;8.054;2022-10-20T15:24:13;28.73;;;17.60;;
35907;SDS011;22003;50.320;8.054;2022-10-20T15:26:38;35.28;;;18.75;;
35907;SDS011;22003;50.320;8.054;2022-10-20T15:29:04;32.43;;;17.87;;
35907;SDS011;22003;50.320;8.054;2022-10-20T15:31:29;31.42;;;18.45;;
35907;SDS011;22003;50.320;8.054;2022-10-20T15:33:55;33.40;;;18.33;;
35907;SDS011;22003;50.320;8.054;2022-10-20T15:36:22;34.97;;;18.35;;
35907;SDS011;22003;50.320;8.054;2022-10-20T15:38:50;36.65;;;20.05;;
35907;SDS011;22003;50.320;8.054;2022-10-20T15:41:16;36.85;;;19.75;;
35907;SDS011;22003;50.320;8.054;2022-10-20T15:43:42;37.33;;;20.55;;
35907;SDS011;22003;50.320;8.054;2022-10-20T15:46:08;35.53;;;19.73;;
35907;SDS011;22003;50.320;8.054;2022-10-20T15:48:34;32.47;;;19.90;;
35907;SDS011;22003;50.320;8.054;2022-10-20T15:50:59;48.67;;;26.80;;
35907;SDS011;22003;50.320;8.054;2022-10-20T15:53:25;43.70;;;24.80;;
35907;SDS011;22003;50.320;8.054;2022-10-20T15:55:50;42.40;;;24.55;;
35907;SDS011;22003;50.320;8.054;2022-10-20T15:58:15;46.50;;;25.63;;
35907;SDS011;22003;50.320;8.054;2022-10-20T16:00:40;49.10;;;24.73;;
35907;SDS011;22003;50.320;8.054;2022-10-20T16:03:05;48.13;;;26.27;;
35907;SDS011;22003;50.320;8.054;2022-10-20T16:05:30;44.20;;;24.93;;
35907;SDS011;22003;50.320;8.054;2022-10-20T16:07:56;43.67;;;23.73;;
35907;SDS011;22003;50.320;8.054;2022-10-20T16:10:21;35.10;;;20.80;;
35907;SDS011;22003;50.320;8.054;2022-10-20T16:12:47;36.88;;;19.17;;
35907;SDS011;22003;50.320;8.054;2022-10-20T16:15:12;30.50;;;18.67;;
35907;SDS011;22003;50.320;8.054;2022-10-20T16:17:37;32.17;;;18.30;;
35907;SDS011;22003;50.320;8.054;2022-10-20T16:20:03;34.30;;;19.60;;
35907;SDS011;22003;50.320;8.054;2022-10-20T16:22:28;30.35;;;18.83;;
35907;SDS011;22003;50.320;8.054;2022-10-20T16:24:54;39.23;;;20.40;;
35907;SDS011;22003;50.320;8.054;2022-10-20T16:27:20;32.33;;;20.85;;
35907;SDS011;22003;50.320;8.054;2022-10-20T16:29:45;32.97;;;19.27;;
35907;SDS011;22003;50.320;8.054;2022-10-20T16:32:10;36.10;;;19.73;;
35907;SDS011;22003;50.320;8.054;2022-10-20T16:34:35;34.17;;;18.80;;
35907;SDS011;22003;50.320;8.054;2022-10-20T16:37:00;31.98;;;18.48;;
35907;SDS011;22003;50.320;8.054;2022-10-20T16:39:26;34.23;;;17.63;;
35907;SDS011;22003;50.320;8.054;2022-10-20T16:41:51;39.40;;;20.42;;
35907;SDS011;22003;50.320;8.054;2022-10-20T16:44:16;44.08;;;19.83;;
35907;SDS011;22003;50.320;8.054;2022-10-20T16:46:41;39.42;;;19.67;;
35907;SDS011;22003;50.320;8.054;2022-10-20T16:49:06;44.22;;;21.88;;
35907;SDS011;22003;50.320;8.054;2022-10-20T16:51:32;42.47;;;21.30;;
35907;SDS011;22003;50.320;8.054;2022-10-20T16:53:57;39.60;;;21.37;;
35907;SDS011;22003;50.320;8.054;2022-10-20T16:56:23;38.67;;;21.45;;
35907;SDS011;22003;50.320;8.054;2022-10-20T16:58:48;41.30;;;20.75;;
35907;SDS011;22003;50.320;8.054;2022-10-20T17:01:14;43.10;;;22.80;;
35907;SDS011;22003;50.320;8.054;2022-10-20T17:03:40;39.90;;;20.98;;
35907;SDS011;22003;50.320;8.054;2022-10-20T17:06:06;39.72;;;21.10;;
35907;SDS011;22003;50.320;8.054;2022-10-20T17:08:31;42.70;;;22.05;;
35907;SDS011;22003;50.320;8.054;2022-10-20T17:10:58;39.15;;;21.80;;
35907;SDS011;22003;50.320;8.054;2022-10-20T17:13:23;40.08;;;20.92;;
35907;SDS011;22003;50.320;8.054;2022-10-20T17:15:48;40.78;;;21.73;;
35907;SDS011;22003;50.320;8.054;2022-10-20T17:18:14;38.42;;;19.10;;
35907;SDS011;22003;50.320;8.054;2022-10-20T17:20:39;41.53;;;21.23;;
35907;SDS011;22003;50.320;8.054;2022-10-20T17:23:04;36.88;;;20.92;;
35907;SDS011;22003;50.320;8.054;2022-10-20T17:25:30;36.93;;;20.47;;
35907;SDS011;22003;50.320;8.054;2022-10-20T17:27:55;41.28;;;21.50;;
35907;SDS011;22003;50.320;8.054;2022-10-20T17:30:20;43.28;;;20.88;;
35907;SDS011;22003;50.320;8.054;2022-10-20T17:32:45;37.22;;;19.83;;
35907;SDS011;22003;50.320;8.054;2022-10-20T17:35:10;32.95;;;18.58;;
35907;SDS011;22003;50.320;8.054;2022-10-20T17:37:38;36.70;;;19.30;;
35907;SDS011;22003;50.320;8.054;2022-10-20T17:40:03;39.17;;;20.27;;
35907;SDS011;22003;50.320;8.054;2022-10-20T17:42:28;38.08;;;21.10;;
35907;SDS011;22003;50.320;8.054;2022-10-20T17:44:53;42.35;;;22.40;;
35907;SDS011;22003;50.320;8.054;2022-10-20T17:47:18;38.13;;;21.70;;
35907;SDS011;22003;50.320;8.054;2022-10-20T17:49:44;39.75;;;22.50;;
35907;SDS011;22003;50.320;8.054;2022-10-20T17:52:09;43.25;;;21.73;;
35907;SDS011;22003;50.320;8.054;2022-10-20T17:54:34;36.27;;;20.47;;
35907;SDS011;22003;50.320;8.054;2022-10-20T17:56:59;41.00;;;22.38;;
35907;SDS011;22003;50.320;8.054;2022-10-20T17:59:24;37.65;;;19.58;;
35907;SDS011;22003;50.320;8.054;2022-10-20T18:01:50;43.83;;;21.38;;
35907;SDS011;22003;50.320;8.054;2022-10-20T18:04:15;33.40;;;19.30;;
35907;SDS011;22003;50.320;8.054;2022-10-20T18:06:41;34.45;;;20.58;;
35907;SDS011;22003;50.320;8.054;2022-10-20T18:09:08;43.97;;;22.90;;
35907;SDS011;22003;50.320;8.054;2022-10-20T18:11:37;45.33;;;23.33;;
35907;SDS011;22003;50.320;8.054;2022-10-20T18:14:02;46.47;;;23.73;;
35907;SDS011;22003;50.320;8.054;2022-10-20T18:16:29;47.88;;;24.60;;
35907;SDS011;22003;50.320;8.054;2022-10-20T18:18:55;42.55;;;23.90;;
35907;SDS011;22003;50.320;8.054;2022-10-20T18:21:23;40.67;;;23.35;;
35907;SDS011;22003;50.320;8.054;2022-10-20T18:23:52;43.20;;;22.50;;
35907;SDS011;22003;50.320;8.054;2022-10-20T18:26:18;44.50;;;23.50;;
35907;SDS011;22003;50.320;8.054;2022-10-20T18:28:44;41.65;;;22.50;;
35907;SDS011;22003;50.320;8.054;2022-10-20T18:31:13;43.60;;;22.77;;
35907;SDS011;22003;50.320;8.054;2022-10-20T18:33:41;43.53;;;22.33;;
35907;SDS011;22003;50.320;8.054;2022-10-20T18:36:07;40.77;;;21.77;;
35907;SDS011;22003;50.320;8.054;2022-10-20T18:38:42;47.63;;;24.05;;
35907;SDS011;22003;50.320;8.054;2022-10-20T18:43:32;50.88;;;24.63;;
35907;SDS011;22003;50.320;8.054;2022-10-20T18:45:58;44.08;;;23.45;;
35907;SDS011;22003;50.320;8.054;2022-10-20T18:48:24;41.97;;;23.40;;
35907;SDS011;22003;50.320;8.054;2022-10-20T18:50:53;41.83;;;24.60;;
35907;SDS011;22003;50.320;8.054;2022-10-20T18:53:18;41.17;;;22.42;;
35907;SDS011;22003;50.320;8.054;2022-10-20T18:55:43;46.60;;;23.67;;
35907;SDS011;22003;50.320;8.054;2022-10-20T18:58:09;38.45;;;20.42;;
35907;SDS011;22003;50.320;8.054;2022-10-20T19:00:34;41.57;;;20.77;;
35907;SDS011;22003;50.320;8.054;2022-10-20T19:02:59;36.28;;;20.00;;
35907;SDS011;22003;50.320;8.054;2022-10-20T19:05:24;72.80;;;29.50;;
35907;SDS011;22003;50.320;8.054;2022-10-20T19:07:50;62.33;;;29.23;;
35907;SDS011;22003;50.320;8.054;2022-10-20T19:10:15;51.20;;;28.33;;
35907;SDS011;22003;50.320;8.054;2022-10-20T19:12:40;52.13;;;28.40;;
35907;SDS011;22003;50.320;8.054;2022-10-20T19:15:05;45.55;;;26.08;;
35907;SDS011;22003;50.320;8.054;2022-10-20T19:17:31;44.40;;;23.00;;
35907;SDS011;22003;50.320;8.054;2022-10-20T19:19:56;39.78;;;21.67;;
35907;SDS011;22003;50.320;8.054;2022-10-20T19:22:21;40.05;;;21.58;;
35907;SDS011;22003;50.320;8.054;2022-10-20T19:24:46;48.15;;;22.85;;
35907;SDS011;22003;50.320;8.054;2022-10-20T19:27:11;40.60;;;20.77;;
35907;SDS011;22003;50.320;8.054;2022-10-20T19:29:37;39.88;;;21.63;;
35907;SDS011;22003;50.320;8.054;2022-10-20T19:32:03;41.10;;;22.73;;
35907;SDS011;22003;50.320;8.054;2022-10-20T19:34:30;44.53;;;21.05;;
35907;SDS011;22003;50.320;8.054;2022-10-20T19:36:55;57.90;;;29.75;;
35907;SDS011;22003;50.320;8.054;2022-10-20T19:39:22;52.47;;;25.60;;
35907;SDS011;22003;50.320;8.054;2022-10-20T19:41:51;50.88;;;26.38;;
35907;SDS011;22003;50.320;8.054;2022-10-20T19:44:16;45.90;;;23.58;;
35907;SDS011;22003;50.320;8.054;2022-10-20T19:46:42;41.42;;;23.27;;
35907;SDS011;22003;50.320;8.054;2022-10-20T19:49:08;47.50;;;23.95;;
35907;SDS011;22003;50.320;8.054;2022-10-20T19:51:33;49.63;;;23.15;;
35907;SDS011;22003;50.320;8.054;2022-10-20T19:53:59;47.92;;;23.88;;
35907;SDS011;22003;50.320;8.054;2022-10-20T19:56:24;54.80;;;27.88;;
35907;SDS011;22003;50.320;8.054;2022-10-20T19:58:49;51.63;;;28.42;;
35907;SDS011;22003;50.320;8.054;2022-10-20T20:01:15;54.47;;;28.45;;
35907;SDS011;22003;50.320;8.054;2022-10-20T20:03:40;55.47;;;29.15;;
35907;SDS011;22003;50.320;8.054;2022-10-20T20:06:07;44.33;;;25.92;;
35907;SDS011;22003;50.320;8.054;2022-10-20T20:08:32;46.28;;;25.13;;
35907;SDS011;22003;50.320;8.054;2022-10-20T20:10:58;39.53;;;22.83;;
35907;SDS011;22003;50.320;8.054;2022-10-20T20:13:23;45.47;;;23.07;;
35907;SDS011;22003;50.320;8.054;2022-10-20T20:15:48;42.88;;;22.58;;